sensor_id;sensor_type;location;lat;lon;timestamp;temperature;humidity
22706;DHT22;11520;51.198;4.468;2023-09-19T05:36:51;14.70;99.90
22706;DHT22;11520;51.198;4.468;2023-09-19T05:41:52;14.70;99.90
22706;DHT22;11520;51.198;4.468;2023-09-19T05:44:18;14.70;99.90
22706;DHT22;11520;51.198;4.468;2023-09-19T05:46:44;14.70;99.90
22706;DHT22;11520;51.198;4.468;2023-09-19T05:49:13;14.70;99.90
22706;DHT22;11520;51.198;4.468;2023-09-19T05:51:39;14.80;99.90
22706;DHT22;11520;51.198;4.468;2023-09-19T05:54:05;14.80;99.90
22706;DHT22;11520;51.198;4.468;2023-09-19T05:56:31;14.90;99.90
22706;DHT22;11520;51.198;4.468;2023-09-19T06:04:10;15.00;99.90
22706;DHT22;11520;51.198;4.468;2023-09-19T06:06:36;15.00;99.90
22706;DHT22;11520;51.198;4.468;2023-09-19T06:09:04;15.10;99.90
22706;DHT22;11520;51.198;4.468;2023-09-19T06:11:35;15.10;99.90
22706;DHT22;11520;51.198;4.468;2023-09-19T06:14:03;15.20;99.90
22706;DHT22;11520;51.198;4.468;2023-09-19T06:16:30;15.20;99.90
22706;DHT22;11520;51.198;4.468;2023-09-19T06:18:55;15.30;99.90
22706;DHT22;11520;51.198;4.468;2023-09-19T06:21:22;15.30;99.90
22706;DHT22;11520;51.198;4.468;2023-09-19T06:23:48;15.30;99.90
22706;DHT22;11520;51.198;4.468;2023-09-19T06:26:14;15.30;99.90
22706;DHT22;11520;51.198;4.468;2023-09-19T06:28:40;15.40;99.90
22706;DHT22;11520;51.198;4.468;2023-09-19T06:31:06;15.50;99.90
22706;DHT22;11520;51.198;4.468;2023-09-19T06:33:35;15.60;99.90
22706;DHT22;11520;51.198;4.468;2023-09-19T06:36:04;15.60;99.90
22706;DHT22;11520;51.198;4.468;2023-09-19T06:38:30;15.70;99.90
22706;DHT22;11520;51.198;4.468;2023-09-19T06:43:24;15.90;99.90
22706;DHT22;11520;51.198;4.468;2023-09-19T06:45:50;15.90;99.90
22706;DHT22;11520;51.198;4.468;2023-09-19T06:48:17;16.00;99.90
22706;DHT22;11520;51.198;4.468;2023-09-19T06:50:43;16.10;99.90
22706;DHT22;11520;51.198;4.468;2023-09-19T06:53:10;16.30;99.90
22706;DHT22;11520;51.198;4.468;2023-09-19T06:55:35;16.40;99.90
22706;DHT22;11520;51.198;4.468;2023-09-19T06:58:02;16.50;99.90
22706;DHT22;11520;51.198;4.468;2023-09-19T07:00:28;16.60;99.90
22706;DHT22;11520;51.198;4.468;2023-09-19T07:03:01;16.60;99.90
22706;DHT22;11520;51.198;4.468;2023-09-19T07:05:32;16.60;99.90
22706;DHT22;11520;51.198;4.468;2023-09-19T07:08:02;16.60;99.90
22706;DHT22;11520;51.198;4.468;2023-09-19T07:10:28;16.60;99.90
22706;DHT22;11520;51.198;4.468;2023-09-19T07:13:01;16.60;99.90
22706;DHT22;11520;51.198;4.468;2023-09-19T07:15:28;16.60;99.90
22706;DHT22;11520;51.198;4.468;2023-09-19T07:17:56;16.70;99.90
22706;DHT22;11520;51.198;4.468;2023-09-19T07:20:24;17.00;99.90
22706;DHT22;11520;51.198;4.468;2023-09-19T07:22:52;17.00;99.90
22706;DHT22;11520;51.198;4.468;2023-09-19T07:25:20;17.20;99.90
22706;DHT22;11520;51.198;4.468;2023-09-19T07:27:46;17.40;99.90
22706;DHT22;11520;51.198;4.468;2023-09-19T07:30:12;17.70;99.90
22706;DHT22;11520;51.198;4.468;2023-09-19T07:32:38;17.90;99.90
22706;DHT22;11520;51.198;4.468;2023-09-19T07:35:05;18.10;99.90
22706;DHT22;11520;51.198;4.468;2023-09-19T07:37:34;18.30;99.90
22706;DHT22;11520;51.198;4.468;2023-09-19T07:40:00;18.50;99.90
22706;DHT22;11520;51.198;4.468;2023-09-19T07:42:33;18.50;99.90
22706;DHT22;11520;51.198;4.468;2023-09-19T07:45:01;18.80;99.90
22706;DHT22;11520;51.198;4.468;2023-09-19T07:52:37;19.70;99.90
22706;DHT22;11520;51.198;4.468;2023-09-19T07:55:06;19.70;99.90
22706;DHT22;11520;51.198;4.468;2023-09-19T08:00:06;19.90;99.90
22706;DHT22;11520;51.198;4.468;2023-09-19T08:02:39;20.10;99.90
22706;DHT22;11520;51.198;4.468;2023-09-19T08:05:06;20.30;99.90
22706;DHT22;11520;51.198;4.468;2023-09-19T08:07:32;20.70;99.90
22706;DHT22;11520;51.198;4.468;2023-09-19T08:09:58;21.00;99.90
22706;DHT22;11520;51.198;4.468;2023-09-19T08:12:24;21.20;99.90
22706;DHT22;11520;51.198;4.468;2023-09-19T08:14:50;21.50;99.90
22706;DHT22;11520;51.198;4.468;2023-09-19T08:17:16;21.90;99.90
22706;DHT22;11520;51.198;4.468;2023-09-19T08:19:42;22.40;99.90
22706;DHT22;11520;51.198;4.468;2023-09-19T08:22:13;22.70;99.90
22706;DHT22;11520;51.198;4.468;2023-09-19T08:29:46;24.10;99.90
22706;DHT22;11520;51.198;4.468;2023-09-19T08:32:12;24.30;99.90
22706;DHT22;11520;51.198;4.468;2023-09-19T08:34:37;24.50;99.90
22706;DHT22;11520;51.198;4.468;2023-09-19T08:37:03;24.70;99.90
22706;DHT22;11520;51.198;4.468;2023-09-19T08:39:29;24.60;99.90
22706;DHT22;11520;51.198;4.468;2023-09-19T08:42:00;24.90;99.90
22706;DHT22;11520;51.198;4.468;2023-09-19T08:44:26;24.50;99.90
22706;DHT22;11520;51.198;4.468;2023-09-19T08:47:04;24.70;99.90
22706;DHT22;11520;51.198;4.468;2023-09-19T08:52:28;24.70;99.90
22706;DHT22;11520;51.198;4.468;2023-09-19T08:54:59;24.20;99.90
22706;DHT22;11520;51.198;4.468;2023-09-19T08:57:33;24.20;99.90
22706;DHT22;11520;51.198;4.468;2023-09-19T09:00:02;24.20;99.90
22706;DHT22;11520;51.198;4.468;2023-09-19T09:02:31;23.70;99.90
22706;DHT22;11520;51.198;4.468;2023-09-19T09:07:27;22.90;99.90
22706;DHT22;11520;51.198;4.468;2023-09-19T09:09:54;23.20;99.90
22706;DHT22;11520;51.198;4.468;2023-09-19T09:12:20;22.90;99.90
22706;DHT22;11520;51.198;4.468;2023-09-19T09:14:46;22.90;99.90
22706;DHT22;11520;51.198;4.468;2023-09-19T09:17:16;22.40;99.90
22706;DHT22;11520;51.198;4.468;2023-09-19T09:19:48;22.30;99.90
22706;DHT22;11520;51.198;4.468;2023-09-19T09:22:14;22.60;99.90
22706;DHT22;11520;51.198;4.468;2023-09-19T09:24:55;23.00;99.90
22706;DHT22;11520;51.198;4.468;2023-09-19T09:27:23;23.00;99.90
22706;DHT22;11520;51.198;4.468;2023-09-19T09:32:28;23.10;99.90
22706;DHT22;11520;51.198;4.468;2023-09-19T09:34:56;23.30;99.90
22706;DHT22;11520;51.198;4.468;2023-09-19T09:37:23;23.60;99.90
22706;DHT22;11520;51.198;4.468;2023-09-19T09:40:01;23.90;99.90
22706;DHT22;11520;51.198;4.468;2023-09-19T09:42:42;24.60;99.90
22706;DHT22;11520;51.198;4.468;2023-09-19T09:45:21;24.80;99.90
22706;DHT22;11520;51.198;4.468;2023-09-19T09:48:00;24.90;99.90
22706;DHT22;11520;51.198;4.468;2023-09-19T09:50:36;25.60;99.90
22706;DHT22;11520;51.198;4.468;2023-09-19T09:53:19;26.10;99.90
22706;DHT22;11520;51.198;4.468;2023-09-19T09:56:04;26.60;99.90
22706;DHT22;11520;51.198;4.468;2023-09-19T09:58:34;27.10;99.30
22706;DHT22;11520;51.198;4.468;2023-09-19T10:01:04;27.50;98.10
22706;DHT22;11520;51.198;4.468;2023-09-19T10:03:39;27.80;97.20
22706;DHT22;11520;51.198;4.468;2023-09-19T10:06:10;27.80;95.20
22706;DHT22;11520;51.198;4.468;2023-09-19T10:11:20;27.60;94.60
22706;DHT22;11520;51.198;4.468;2023-09-19T10:13:55;27.50;94.00
22706;DHT22;11520;51.198;4.468;2023-09-19T10:16:22;27.80;92.80
22706;DHT22;11520;51.198;4.468;2023-09-19T10:18:53;28.00;92.00
22706;DHT22;11520;51.198;4.468;2023-09-19T10:21:19;28.60;92.00
22706;DHT22;11520;51.198;4.468;2023-09-19T10:23:49;29.20;91.00
22706;DHT22;11520;51.198;4.468;2023-09-19T10:26:17;30.00;89.60
22706;DHT22;11520;51.198;4.468;2023-09-19T10:28:47;30.00;84.70
22706;DHT22;11520;51.198;4.468;2023-09-19T10:31:19;29.40;85.30
22706;DHT22;11520;51.198;4.468;2023-09-19T10:33:47;28.90;86.80
22706;DHT22;11520;51.198;4.468;2023-09-19T10:36:15;29.10;86.20
22706;DHT22;11520;51.198;4.468;2023-09-19T10:38:43;28.90;86.40
22706;DHT22;11520;51.198;4.468;2023-09-19T10:41:14;28.90;88.30
22706;DHT22;11520;51.198;4.468;2023-09-19T10:43:43;28.80;87.10
22706;DHT22;11520;51.198;4.468;2023-09-19T10:46:12;28.50;87.00
22706;DHT22;11520;51.198;4.468;2023-09-19T10:48:39;29.00;88.50
22706;DHT22;11520;51.198;4.468;2023-09-19T10:51:12;29.30;84.90
22706;DHT22;11520;51.198;4.468;2023-09-19T10:53:56;29.00;85.10
22706;DHT22;11520;51.198;4.468;2023-09-19T10:56:38;28.50;85.10
22706;DHT22;11520;51.198;4.468;2023-09-19T10:59:14;28.50;85.80
22706;DHT22;11520;51.198;4.468;2023-09-19T11:04:33;28.40;88.60
22706;DHT22;11520;51.198;4.468;2023-09-19T11:07:09;29.00;85.70
22706;DHT22;11520;51.198;4.468;2023-09-19T11:09:52;28.80;86.20
22706;DHT22;11520;51.198;4.468;2023-09-19T11:15:07;29.00;85.40
22706;DHT22;11520;51.198;4.468;2023-09-19T11:17:35;28.80;84.90
22706;DHT22;11520;51.198;4.468;2023-09-19T11:30:35;27.60;90.20
22706;DHT22;11520;51.198;4.468;2023-09-19T11:33:21;27.70;89.20
22706;DHT22;11520;51.198;4.468;2023-09-19T11:36:14;27.10;89.60
22706;DHT22;11520;51.198;4.468;2023-09-19T11:49:27;24.80;94.00
22706;DHT22;11520;51.198;4.468;2023-09-19T11:51:56;24.70;95.50
22706;DHT22;11520;51.198;4.468;2023-09-19T11:54:22;24.20;95.40
22706;DHT22;11520;51.198;4.468;2023-09-19T11:56:50;24.20;96.90
22706;DHT22;11520;51.198;4.468;2023-09-19T11:59:31;23.80;96.60
22706;DHT22;11520;51.198;4.468;2023-09-19T12:02:01;23.60;98.00
22706;DHT22;11520;51.198;4.468;2023-09-19T12:07:09;23.40;99.20
22706;DHT22;11520;51.198;4.468;2023-09-19T12:09:45;23.50;99.50
22706;DHT22;11520;51.198;4.468;2023-09-19T12:12:23;23.50;99.20
22706;DHT22;11520;51.198;4.468;2023-09-19T12:14:53;23.50;99.60
22706;DHT22;11520;51.198;4.468;2023-09-19T12:17:19;23.60;99.50
22706;DHT22;11520;51.198;4.468;2023-09-19T12:19:56;23.60;99.20
22706;DHT22;11520;51.198;4.468;2023-09-19T12:22:22;23.50;99.90
22706;DHT22;11520;51.198;4.468;2023-09-19T12:25:06;23.60;99.70
22706;DHT22;11520;51.198;4.468;2023-09-19T12:27:44;23.70;99.90
22706;DHT22;11520;51.198;4.468;2023-09-19T12:30:12;23.50;99.60
22706;DHT22;11520;51.198;4.468;2023-09-19T12:32:44;23.30;99.90
22706;DHT22;11520;51.198;4.468;2023-09-19T12:35:31;23.20;99.90
22706;DHT22;11520;51.198;4.468;2023-09-19T12:38:00;23.00;99.90
22706;DHT22;11520;51.198;4.468;2023-09-19T12:40:26;23.10;99.90
22706;DHT22;11520;51.198;4.468;2023-09-19T12:53:40;22.40;99.90
22706;DHT22;11520;51.198;4.468;2023-09-19T12:56:08;22.50;99.90
22706;DHT22;11520;51.198;4.468;2023-09-19T12:58:48;22.50;99.90
22706;DHT22;11520;51.198;4.468;2023-09-19T13:01:15;22.60;99.90
22706;DHT22;11520;51.198;4.468;2023-09-19T13:03:41;22.60;99.90
22706;DHT22;11520;51.198;4.468;2023-09-19T13:06:07;22.70;99.90
22706;DHT22;11520;51.198;4.468;2023-09-19T13:08:37;22.60;99.90
22706;DHT22;11520;51.198;4.468;2023-09-19T13:11:12;22.60;99.90
22706;DHT22;11520;51.198;4.468;2023-09-19T13:14:23;22.60;99.90
22706;DHT22;11520;51.198;4.468;2023-09-19T13:16:29;22.80;99.90
22706;DHT22;11520;51.198;4.468;2023-09-19T13:18:55;23.00;99.90
22706;DHT22;11520;51.198;4.468;2023-09-19T13:21:32;23.00;99.90
22706;DHT22;11520;51.198;4.468;2023-09-19T13:24:22;22.70;99.90
22706;DHT22;11520;51.198;4.468;2023-09-19T13:26:48;22.50;99.90
22706;DHT22;11520;51.198;4.468;2023-09-19T13:29:15;22.40;99.90
22706;DHT22;11520;51.198;4.468;2023-09-19T13:31:47;22.50;99.90
22706;DHT22;11520;51.198;4.468;2023-09-19T13:34:13;22.50;99.90
22706;DHT22;11520;51.198;4.468;2023-09-19T13:36:43;22.40;99.90
22706;DHT22;11520;51.198;4.468;2023-09-19T13:39:09;22.50;99.90
22706;DHT22;11520;51.198;4.468;2023-09-19T13:41:38;22.60;99.90
22706;DHT22;11520;51.198;4.468;2023-09-19T13:44:04;22.40;99.90
22706;DHT22;11520;51.198;4.468;2023-09-19T13:46:31;22.50;99.90
22706;DHT22;11520;51.198;4.468;2023-09-19T13:49:01;22.50;99.90
22706;DHT22;11520;51.198;4.468;2023-09-19T13:51:30;22.50;99.90
22706;DHT22;11520;51.198;4.468;2023-09-19T13:53:56;22.60;99.90
22706;DHT22;11520;51.198;4.468;2023-09-19T13:56:21;22.60;99.90
22706;DHT22;11520;51.198;4.468;2023-09-19T13:58:47;22.50;99.90
22706;DHT22;11520;51.198;4.468;2023-09-19T14:01:13;22.60;99.90
22706;DHT22;11520;51.198;4.468;2023-09-19T14:03:42;22.70;99.90
22706;DHT22;11520;51.198;4.468;2023-09-19T14:06:13;22.60;99.90
22706;DHT22;11520;51.198;4.468;2023-09-19T14:08:38;22.50;99.90
22706;DHT22;11520;51.198;4.468;2023-09-19T14:11:08;22.60;99.90
22706;DHT22;11520;51.198;4.468;2023-09-19T14:13:34;22.60;99.90
22706;DHT22;11520;51.198;4.468;2023-09-19T14:16:18;22.60;99.90
22706;DHT22;11520;51.198;4.468;2023-09-19T14:18:45;22.60;99.90
22706;DHT22;11520;51.198;4.468;2023-09-19T14:21:11;22.50;99.90
22706;DHT22;11520;51.198;4.468;2023-09-19T14:23:38;22.40;99.90
22706;DHT22;11520;51.198;4.468;2023-09-19T14:26:04;22.30;99.90
22706;DHT22;11520;51.198;4.468;2023-09-19T14:28:31;22.30;99.90
22706;DHT22;11520;51.198;4.468;2023-09-19T14:31:04;22.30;99.90
22706;DHT22;11520;51.198;4.468;2023-09-19T14:33:30;22.30;99.90
22706;DHT22;11520;51.198;4.468;2023-09-19T14:35:56;22.30;99.90
22706;DHT22;11520;51.198;4.468;2023-09-19T14:38:22;22.20;99.90
22706;DHT22;11520;51.198;4.468;2023-09-19T14:40:48;22.10;99.90
22706;DHT22;11520;51.198;4.468;2023-09-19T14:43:15;22.10;99.90
22706;DHT22;11520;51.198;4.468;2023-09-19T14:48:16;21.80;99.90
22706;DHT22;11520;51.198;4.468;2023-09-19T14:50:42;21.90;99.90
22706;DHT22;11520;51.198;4.468;2023-09-19T14:53:16;21.80;99.90
22706;DHT22;11520;51.198;4.468;2023-09-19T14:55:42;21.80;99.90
22706;DHT22;11520;51.198;4.468;2023-09-19T14:58:10;21.80;99.90
22706;DHT22;11520;51.198;4.468;2023-09-19T15:00:36;21.70;99.90
22706;DHT22;11520;51.198;4.468;2023-09-19T15:03:02;21.80;99.90
22706;DHT22;11520;51.198;4.468;2023-09-19T15:05:28;21.80;99.90
22706;DHT22;11520;51.198;4.468;2023-09-19T15:07:56;21.80;99.90
22706;DHT22;11520;51.198;4.468;2023-09-19T15:10:23;21.70;99.90
22706;DHT22;11520;51.198;4.468;2023-09-19T15:33:24;20.80;99.90
22706;DHT22;11520;51.198;4.468;2023-09-19T15:35:52;20.90;99.90
22706;DHT22;11520;51.198;4.468;2023-09-19T15:38:18;20.90;99.90
22706;DHT22;11520;51.198;4.468;2023-09-19T15:40:47;21.00;99.90
22706;DHT22;11520;51.198;4.468;2023-09-19T15:43:13;21.00;99.90
22706;DHT22;11520;51.198;4.468;2023-09-19T15:48:15;21.20;99.90
22706;DHT22;11520;51.198;4.468;2023-09-19T15:50:41;21.20;99.90
22706;DHT22;11520;51.198;4.468;2023-09-19T15:53:08;21.10;99.90
22706;DHT22;11520;51.198;4.468;2023-09-19T15:55:39;21.00;99.90
22706;DHT22;11520;51.198;4.468;2023-09-19T15:58:05;20.90;99.90
22706;DHT22;11520;51.198;4.468;2023-09-19T16:00:34;20.80;99.90
22706;DHT22;11520;51.198;4.468;2023-09-19T16:03:01;20.70;99.90
22706;DHT22;11520;51.198;4.468;2023-09-19T16:05:28;20.70;99.90
22706;DHT22;11520;51.198;4.468;2023-09-19T16:07:53;20.80;99.90
22706;DHT22;11520;51.198;4.468;2023-09-19T16:10:19;20.80;99.90
22706;DHT22;11520;51.198;4.468;2023-09-19T16:12:44;20.70;99.90
22706;DHT22;11520;51.198;4.468;2023-09-19T16:15:10;20.70;99.90
22706;DHT22;11520;51.198;4.468;2023-09-19T16:17:37;20.80;99.90
22706;DHT22;11520;51.198;4.468;2023-09-19T16:20:03;20.70;99.90
22706;DHT22;11520;51.198;4.468;2023-09-19T16:22:28;20.60;99.90
22706;DHT22;11520;51.198;4.468;2023-09-19T16:24:54;20.50;99.90
22706;DHT22;11520;51.198;4.468;2023-09-19T16:27:20;20.40;99.90
22706;DHT22;11520;51.198;4.468;2023-09-19T16:29:47;20.40;99.90
22706;DHT22;11520;51.198;4.468;2023-09-19T16:32:14;20.30;99.90
22706;DHT22;11520;51.198;4.468;2023-09-19T16:34:40;20.30;99.90
22706;DHT22;11520;51.198;4.468;2023-09-19T16:37:06;20.20;99.90
22706;DHT22;11520;51.198;4.468;2023-09-19T16:39:32;20.20;99.90
22706;DHT22;11520;51.198;4.468;2023-09-19T16:41:59;20.20;99.90
22706;DHT22;11520;51.198;4.468;2023-09-19T16:44:25;20.20;99.90
22706;DHT22;11520;51.198;4.468;2023-09-19T16:46:50;20.10;99.90
22706;DHT22;11520;51.198;4.468;2023-09-19T16:49:16;20.10;99.90
22706;DHT22;11520;51.198;4.468;2023-09-19T17:27:56;19.60;99.90
22706;DHT22;11520;51.198;4.468;2023-09-19T17:30:24;19.60;99.90
22706;DHT22;11520;51.198;4.468;2023-09-19T17:32:51;19.50;99.90
22706;DHT22;11520;51.198;4.468;2023-09-19T17:35:17;19.40;99.90
22706;DHT22;11520;51.198;4.468;2023-09-19T17:37:44;19.40;99.90
22706;DHT22;11520;51.198;4.468;2023-09-19T17:40:11;19.40;99.90
22706;DHT22;11520;51.198;4.468;2023-09-19T17:42:37;19.30;99.90
22706;DHT22;11520;51.198;4.468;2023-09-19T17:45:04;19.30;99.90
22706;DHT22;11520;51.198;4.468;2023-09-19T17:47:30;19.30;99.90
22706;DHT22;11520;51.198;4.468;2023-09-19T17:49:56;19.30;99.90
22706;DHT22;11520;51.198;4.468;2023-09-19T17:52:22;19.20;99.90
22706;DHT22;11520;51.198;4.468;2023-09-19T17:54:48;19.20;99.90
22706;DHT22;11520;51.198;4.468;2023-09-19T17:57:18;19.10;99.90
22706;DHT22;11520;51.198;4.468;2023-09-19T17:59:44;19.00;99.90
22706;DHT22;11520;51.198;4.468;2023-09-19T18:02:09;19.00;99.90
22706;DHT22;11520;51.198;4.468;2023-09-19T18:04:37;19.00;99.90
22706;DHT22;11520;51.198;4.468;2023-09-19T18:07:03;18.90;99.90
22706;DHT22;11520;51.198;4.468;2023-09-19T18:09:29;19.00;99.90
22706;DHT22;11520;51.198;4.468;2023-09-19T18:11:55;18.90;99.90
22706;DHT22;11520;51.198;4.468;2023-09-19T18:14:20;18.90;99.90
22706;DHT22;11520;51.198;4.468;2023-09-19T18:16:46;18.90;99.90
22706;DHT22;11520;51.198;4.468;2023-09-19T18:19:13;18.80;99.90
22706;DHT22;11520;51.198;4.468;2023-09-19T18:21:38;18.80;99.90
22706;DHT22;11520;51.198;4.468;2023-09-19T18:24:04;18.80;99.90
22706;DHT22;11520;51.198;4.468;2023-09-19T18:26:34;18.80;99.90
22706;DHT22;11520;51.198;4.468;2023-09-19T18:29:03;18.80;99.90
22706;DHT22;11520;51.198;4.468;2023-09-19T18:31:30;18.80;99.90
22706;DHT22;11520;51.198;4.468;2023-09-19T18:33:59;18.80;99.90
22706;DHT22;11520;51.198;4.468;2023-09-19T18:36:26;18.80;99.90
22706;DHT22;11520;51.198;4.468;2023-09-19T18:38:55;18.90;99.90
22706;DHT22;11520;51.198;4.468;2023-09-19T18:41:22;18.80;99.90
22706;DHT22;11520;51.198;4.468;2023-09-19T18:43:48;18.80;99.90
22706;DHT22;11520;51.198;4.468;2023-09-19T18:46:16;18.80;99.90
22706;DHT22;11520;51.198;4.468;2023-09-19T18:48:44;18.80;99.90
22706;DHT22;11520;51.198;4.468;2023-09-19T18:51:10;18.80;99.90
22706;DHT22;11520;51.198;4.468;2023-09-19T18:53:37;18.80;99.90
22706;DHT22;11520;51.198;4.468;2023-09-19T18:56:11;18.80;99.90
22706;DHT22;11520;51.198;4.468;2023-09-19T18:58:39;18.80;99.90
22706;DHT22;11520;51.198;4.468;2023-09-19T19:01:08;18.80;99.90
22706;DHT22;11520;51.198;4.468;2023-09-19T19:03:35;18.80;99.90
22706;DHT22;11520;51.198;4.468;2023-09-19T19:08:38;18.80;99.90
22706;DHT22;11520;51.198;4.468;2023-09-19T19:11:08;18.90;99.90
22706;DHT22;11520;51.198;4.468;2023-09-19T19:13:34;18.80;99.90
22706;DHT22;11520;51.198;4.468;2023-09-19T19:16:00;18.90;99.90
22706;DHT22;11520;51.198;4.468;2023-09-19T19:18:26;18.80;99.90
22706;DHT22;11520;51.198;4.468;2023-09-19T19:20:59;18.80;99.90
22706;DHT22;11520;51.198;4.468;2023-09-19T19:23:25;18.80;99.90
22706;DHT22;11520;51.198;4.468;2023-09-19T19:25:53;18.90;99.90
22706;DHT22;11520;51.198;4.468;2023-09-19T19:28:20;18.90;99.90
22706;DHT22;11520;51.198;4.468;2023-09-19T19:30:46;18.90;99.90
22706;DHT22;11520;51.198;4.468;2023-09-19T19:33:16;18.90;99.90
22706;DHT22;11520;51.198;4.468;2023-09-19T19:35:41;18.90;99.90
22706;DHT22;11520;51.198;4.468;2023-09-19T19:38:08;18.90;99.90
